Time;durP1;ratioP1;P1;durP2;ratioP2;P2;SDS_P1;SDS_P2;PMS_P1;PMS_P2;Temp;Humidity;BMP_temperature;BMP_pressure;BME280_temperature;BME280_humidity;BME280_pressure;Samples;Min_cycle;Max_cycle;Signal;HPM_P1;HPM_P2
2022/09/26 00:01:27;;;;;;;11.93;8.80;;;;;;;10.89;100.00;97710.91;5102440;28;20257;-64
2022/09/26 00:03:56;;;;;;;11.30;8.60;;;;;;;10.78;100.00;97700.34;5111899;28;20262;-64
2022/09/26 00:06:23;;;;;;;13.00;9.10;;;;;;;10.76;100.00;97698.78;5115451;28;20333;-64
2022/09/26 00:08:51;;;;;;;11.97;8.80;;;;;;;10.77;100.00;97700.47;5115345;28;20257;-64
2022/09/26 00:11:20;;;;;;;10.80;8.47;;;;;;;10.76;100.00;97698.78;5115241;28;20261;-64
2022/09/26 00:13:47;;;;;;;13.67;9.17;;;;;;;10.78;100.00;97705.63;5110391;28;20262;-64
2022/09/26 00:16:14;;;;;;;10.53;8.37;;;;;;;10.79;100.00;97687.97;5115149;28;20258;-64
2022/09/26 00:18:42;;;;;;;11.97;8.97;;;;;;;10.79;100.00;97688.81;5115066;28;20235;-64
2022/09/26 00:21:11;;;;;;;11.20;8.50;;;;;;;10.79;100.00;97691.47;5114853;28;20258;-64
2022/09/26 00:23:38;;;;;;;11.73;8.27;;;;;;;10.80;100.00;97690.50;5112065;28;20265;-65
2022/09/26 00:26:06;;;;;;;12.30;8.10;;;;;;;10.78;100.00;97681.00;5115128;28;20259;-65
2022/09/26 00:28:33;;;;;;;11.70;8.40;;;;;;;10.72;100.00;97686.75;5114918;28;20690;-64
2022/09/26 00:31:04;;;;;;;11.57;8.50;;;;;;;10.68;100.00;97690.56;5114573;28;20673;-64
2022/09/26 00:33:31;;;;;;;10.57;7.93;;;;;;;10.59;100.00;97680.72;5112086;28;20226;-64
2022/09/26 00:35:59;;;;;;;12.37;8.20;;;;;;;10.51;100.00;97683.13;5114773;28;20259;-64
2022/09/26 00:38:26;;;;;;;8.40;7.50;;;;;;;10.40;100.00;97693.66;5112778;28;20674;-64
2022/09/26 00:40:53;;;;;;;11.13;7.50;;;;;;;10.30;100.00;97690.00;5113980;28;20271;-64
2022/09/26 00:43:28;;;;;;;12.97;8.43;;;;;;;10.23;100.00;97689.63;5111773;28;20265;-64
2022/09/26 00:45:57;;;;;;;12.07;8.53;;;;;;;10.19;100.00;97682.03;5114491;28;20567;-64
2022/09/26 00:48:24;;;;;;;12.00;7.83;;;;;;;10.16;100.00;97677.00;5114336;28;20323;-64
2022/09/26 00:50:52;;;;;;;11.00;7.90;;;;;;;10.10;100.00;97685.38;5112444;28;20258;-64
2022/09/26 00:53:25;;;;;;;12.90;7.47;;;;;;;10.05;100.00;97679.59;5113483;28;20232;-64
2022/09/26 00:55:56;;;;;;;10.13;7.70;;;;;;;10.01;100.00;97675.44;5100710;28;20601;-64
2022/09/26 00:58:26;;;;;;;10.50;8.10;;;;;;;9.99;100.00;97680.00;5101170;28;20269;-64
2022/09/26 01:00:54;;;;;;;13.47;7.77;;;;;;;9.92;100.00;97674.31;5104720;28;20309;-65
2022/09/26 01:03:22;;;;;;;9.90;7.60;;;;;;;9.88;100.00;97672.88;5101130;28;20234;-64
2022/09/26 01:05:49;;;;;;;11.27;8.33;;;;;;;9.85;100.00;97667.00;5099190;28;20314;-63
2022/09/26 01:08:19;;;;;;;12.50;8.33;;;;;;;9.79;100.00;97662.16;5112688;28;20322;-63
2022/09/26 01:10:47;;;;;;;11.33;8.47;;;;;;;9.76;100.00;97662.38;5110631;28;20288;-64
2022/09/26 01:13:14;;;;;;;13.17;8.53;;;;;;;9.75;100.00;97660.69;5114186;28;20593;-64
2022/09/26 01:15:40;;;;;;;11.27;8.03;;;;;;;9.70;100.00;97665.47;5113986;28;20665;-64
2022/09/26 01:18:07;;;;;;;10.00;8.27;;;;;;;9.62;100.00;97659.91;5113979;28;20254;-64
2022/09/26 01:20:45;;;;;;;12.23;8.47;;;;;;;9.60;100.00;97659.19;5110274;28;20223;-64
2022/09/26 01:23:37;;;;;;;11.17;8.13;;;;;;;9.54;100.00;97657.81;5113910;28;20260;-65
2022/09/26 01:26:33;;;;;;;12.03;8.23;;;;;;;9.57;100.00;97662.03;5113339;28;20229;-64
2022/09/26 01:29:25;;;;;;;12.00;7.97;;;;;;;9.52;100.00;97664.16;5100660;28;20284;-64
2022/09/26 01:34:57;;;;;;;10.07;8.23;;;;;;;9.49;100.00;97661.75;5100945;28;20519;-64
2022/09/26 01:37:32;;;;;;;13.23;8.37;;;;;;;9.46;100.00;97667.25;5100672;28;20222;-64
2022/09/26 01:40:07;;;;;;;13.70;9.20;;;;;;;9.45;100.00;97663.78;5100628;28;20637;-64
2022/09/26 01:42:43;;;;;;;14.47;8.93;;;;;;;9.50;100.00;97666.06;5100619;28;20269;-64
2022/09/26 01:45:16;;;;;;;15.67;8.87;;;;;;;9.48;100.00;97663.53;5100588;28;20262;-63
2022/09/26 01:47:48;;;;;;;12.87;8.87;;;;;;;9.49;100.00;97659.13;5100918;28;20242;-64
2022/09/26 01:50:23;;;;;;;15.40;9.23;;;;;;;9.41;100.00;97661.44;5102658;28;20708;-64
2022/09/26 01:52:56;;;;;;;11.87;8.67;;;;;;;9.42;100.00;97668.44;5103079;28;20603;-64
2022/09/26 01:55:28;;;;;;;11.23;8.63;;;;;;;9.32;100.00;97662.97;5101879;28;20260;-64
2022/09/26 01:58:03;;;;;;;13.40;8.40;;;;;;;9.35;100.00;97667.16;5111686;28;20249;-64
2022/09/26 02:00:30;;;;;;;12.90;9.07;;;;;;;9.39;100.00;97660.72;5100333;28;20254;-64
2022/09/26 02:03:00;;;;;;;12.60;9.23;;;;;;;9.41;100.00;97664.94;5100413;28;20233;-64
2022/09/26 02:05:32;;;;;;;12.77;9.17;;;;;;;9.45;100.00;97662.91;5101063;28;20358;-64
2022/09/26 02:08:03;;;;;;;13.40;9.13;;;;;;;9.44;100.00;97651.53;5103605;28;20246;-64
2022/09/26 02:10:34;;;;;;;12.60;9.47;;;;;;;9.45;100.00;97658.50;5104417;28;20253;-64
2022/09/26 02:13:07;;;;;;;16.03;9.80;;;;;;;9.52;100.00;97654.47;5104373;28;20269;-63
2022/09/26 02:15:36;;;;;;;12.27;8.70;;;;;;;9.58;100.00;97647.88;5107360;28;20270;-64
2022/09/26 02:18:14;;;;;;;11.50;9.00;;;;;;;9.60;100.00;97646.00;5104299;28;20571;-64
2022/09/26 02:20:46;;;;;;;13.83;9.33;;;;;;;9.61;100.00;97650.31;5104344;28;20257;-63
2022/09/26 02:23:13;;;;;;;15.30;10.00;;;;;;;9.65;100.00;97643.84;5114115;28;20229;-64
2022/09/26 02:25:40;;;;;;;12.23;9.27;;;;;;;9.68;100.00;97646.28;5106190;28;20585;-64
2022/09/26 02:28:06;;;;;;;12.80;9.73;;;;;;;9.71;100.00;97648.66;5104235;28;20284;-63
2022/09/26 02:30:33;;;;;;;11.67;9.93;;;;;;;9.71;100.00;97638.13;5104212;28;20269;-63
2022/09/26 02:33:00;;;;;;;13.67;9.43;;;;;;;9.71;100.00;97630.19;5104997;28;20265;-64
2022/09/26 02:38:12;;;;;;;12.73;8.97;;;;;;;9.67;100.00;97641.97;5104387;28;20238;-64
2022/09/26 02:40:47;;;;;;;13.10;9.40;;;;;;;9.63;100.00;97625.50;5103895;28;20258;-64
2022/09/26 02:43:33;;;;;;;14.77;10.43;;;;;;;9.66;100.00;97635.00;5113695;28;20233;-63
2022/09/26 02:46:09;;;;;;;12.80;9.13;;;;;;;9.64;100.00;97623.69;5116953;28;20286;-64
2022/09/26 02:48:49;;;;;;;13.93;10.47;;;;;;;9.67;100.00;97631.41;5115027;28;20281;-63
2022/09/26 02:51:31;;;;;;;16.40;10.77;;;;;;;9.76;100.00;97630.72;5115050;28;20595;-65
2022/09/26 02:54:11;;;;;;;14.47;10.70;;;;;;;9.81;100.00;97620.66;5112281;28;20256;-63
2022/09/26 02:56:54;;;;;;;13.17;9.63;;;;;;;9.85;100.00;97615.03;5104825;28;20261;-64
2022/09/26 02:59:27;;;;;;;14.73;10.47;;;;;;;9.84;100.00;97615.19;5103778;28;20258;-64
2022/09/26 03:01:57;;;;;;;12.90;10.47;;;;;;;9.84;100.00;97613.34;5103442;28;20233;-64
2022/09/26 03:04:30;;;;;;;13.97;10.57;;;;;;;9.83;100.00;97610.81;5103820;28;20644;-64
2022/09/26 03:07:00;;;;;;;15.40;10.17;;;;;;;9.87;100.00;97601.72;5105612;28;20308;-64
2022/09/26 03:09:29;;;;;;;15.80;10.77;;;;;;;9.93;100.00;97606.56;5103335;28;20610;-63
2022/09/26 03:11:59;;;;;;;14.30;10.03;;;;;;;9.95;100.00;97599.34;5103354;28;20261;-64
2022/09/26 03:14:27;;;;;;;13.23;10.20;;;;;;;9.96;100.00;97598.38;5103459;28;20262;-63
2022/09/26 03:16:54;;;;;;;15.30;10.13;;;;;;;9.98;100.00;97594.69;5104395;28;20229;-63
2022/09/26 03:19:29;;;;;;;13.03;10.07;;;;;;;9.99;100.00;97595.53;5102734;28;20255;-64
2022/09/26 03:21:55;;;;;;;13.63;10.10;;;;;;;10.00;100.00;97584.88;5103242;28;20219;-64
2022/09/26 03:24:25;;;;;;;14.43;9.77;;;;;;;10.00;100.00;97584.88;5106189;28;20307;-64
2022/09/26 03:26:52;;;;;;;12.40;9.87;;;;;;;9.98;100.00;97578.03;5103049;28;20267;-63
2022/09/26 03:29:19;;;;;;;13.90;9.90;;;;;;;9.98;100.00;97586.75;5102790;28;20239;-63
2022/09/26 03:31:49;;;;;;;13.83;10.63;;;;;;;9.97;100.00;97585.09;5102916;28;20223;-63
2022/09/26 03:34:15;;;;;;;14.70;10.13;;;;;;;9.96;100.00;97586.03;5106232;28;20229;-63
2022/09/26 03:36:42;;;;;;;14.97;9.57;;;;;;;9.90;100.00;97572.47;5102946;28;20939;-64
2022/09/26 03:39:09;;;;;;;14.30;10.00;;;;;;;9.88;100.00;97571.75;5111104;28;20254;-63
2022/09/26 03:41:37;;;;;;;11.83;9.43;;;;;;;9.84;100.00;97572.94;5100893;28;20272;-64
2022/09/26 03:44:03;;;;;;;12.60;9.17;;;;;;;9.85;100.00;97572.81;5105689;28;20264;-64
2022/09/26 03:46:30;;;;;;;12.50;9.83;;;;;;;9.84;100.00;97571.13;5102881;28;20274;-64
2022/09/26 03:48:57;;;;;;;12.73;9.77;;;;;;;9.80;100.00;97563.56;5102643;28;20278;-63
2022/09/26 03:51:25;;;;;;;18.53;9.60;;;;;;;9.85;100.00;97566.72;5102584;28;20712;-64
2022/09/26 03:53:51;;;;;;;12.43;9.37;;;;;;;9.82;100.00;97556.38;5110808;28;20231;-64
2022/09/26 03:56:20;;;;;;;14.03;9.47;;;;;;;9.79;100.00;97551.34;5105597;28;20260;-63
2022/09/26 03:58:48;;;;;;;11.33;9.13;;;;;;;9.76;100.00;97556.81;5115714;28;20256;-64
2022/09/26 04:01:18;;;;;;;11.50;9.00;;;;;;;9.73;100.00;97551.78;5115435;28;20225;-64
2022/09/26 04:03:46;;;;;;;10.27;8.10;;;;;;;9.68;100.00;97549.47;5112186;28;20624;-64
2022/09/26 04:06:18;;;;;;;10.73;8.23;;;;;;;9.62;100.00;97552.56;5100881;28;20257;-63
2022/09/26 04:08:46;;;;;;;11.57;8.13;;;;;;;9.55;100.00;97547.88;5102105;28;20650;-64
2022/09/26 04:11:15;;;;;;;10.67;7.90;;;;;;;9.46;100.00;97544.13;5102271;28;20227;-64
2022/09/26 04:13:42;;;;;;;11.20;7.50;;;;;;;9.39;100.00;97544.69;5112068;28;20262;-64
2022/09/26 04:16:10;;;;;;;11.53;8.47;;;;;;;9.32;100.00;97543.47;5115186;28;20229;-64
2022/09/26 04:18:37;;;;;;;9.60;7.77;;;;;;;9.18;100.00;97536.53;5115176;28;20305;-64
2022/09/26 04:21:06;;;;;;;9.47;7.50;;;;;;;9.12;100.00;97529.09;5115017;28;20253;-64
2022/09/26 04:23:35;;;;;;;11.70;7.97;;;;;;;9.08;100.00;97532.06;5112188;28;20557;-64
2022/09/26 04:26:04;;;;;;;10.30;7.83;;;;;;;9.02;100.00;97519.31;5114836;28;20318;-64
2022/09/26 04:28:31;;;;;;;11.33;8.27;;;;;;;8.95;100.00;97515.47;5114904;28;20282;-64
2022/09/26 04:30:57;;;;;;;9.47;7.73;;;;;;;8.84;100.00;97515.38;5113378;28;20257;-64
2022/09/26 04:33:25;;;;;;;10.87;8.10;;;;;;;8.75;100.00;97508.16;5110135;28;20261;-63
2022/09/26 04:35:53;;;;;;;13.80;8.20;;;;;;;8.74;100.00;97509.06;5114993;28;20599;-64
2022/09/26 04:38:20;;;;;;;10.30;8.20;;;;;;;8.76;100.00;97507.19;5114730;28;20250;-63
2022/09/26 04:40:46;;;;;;;11.23;8.70;;;;;;;8.80;100.00;97506.88;5114380;28;20265;-63
2022/09/26 04:43:13;;;;;;;12.13;8.73;;;;;;;8.77;100.00;97506.25;5111672;28;20259;-63
2022/09/26 04:45:40;;;;;;;10.67;7.77;;;;;;;8.74;100.00;97509.06;5114513;28;20261;-63
2022/09/26 04:48:07;;;;;;;10.63;8.53;;;;;;;8.73;100.00;97504.78;5114391;28;20240;-63
2022/09/26 04:50:35;;;;;;;9.73;7.77;;;;;;;8.70;100.00;97500.56;5114436;28;20224;-63
2022/09/26 04:53:05;;;;;;;10.27;7.77;;;;;;;8.64;100.00;97500.19;5110605;28;20589;-63
2022/09/26 04:55:31;;;;;;;10.77;8.10;;;;;;;8.59;100.00;97497.03;5106458;28;20655;-63
2022/09/26 04:57:58;;;;;;;9.43;7.77;;;;;;;8.54;100.00;97493.88;5114100;28;20257;-64
2022/09/26 05:00:25;;;;;;;11.30;8.47;;;;;;;8.51;100.00;97494.09;5112692;28;20267;-63
2022/09/26 05:02:52;;;;;;;10.43;7.50;;;;;;;8.50;100.00;97487.16;5111097;28;20231;-63
2022/09/26 05:05:20;;;;;;;11.70;7.97;;;;;;;8.48;100.00;97494.31;5114209;28;20538;-63
2022/09/26 05:07:48;;;;;;;10.87;7.60;;;;;;;8.47;100.00;97485.56;5114015;28;20335;-64
2022/09/26 05:10:14;;;;;;;11.20;7.43;;;;;;;8.43;100.00;97485.88;5113818;28;20700;-63
2022/09/26 05:12:41;;;;;;;11.30;8.50;;;;;;;8.40;100.00;97488.75;5110822;28;20267;-63
2022/09/26 05:15:10;;;;;;;10.43;8.00;;;;;;;8.36;100.00;97484.63;5114017;28;20267;-63
2022/09/26 05:17:37;;;;;;;9.10;7.57;;;;;;;8.38;100.00;97488.03;5113889;28;20299;-63
2022/09/26 05:20:07;;;;;;;10.77;7.80;;;;;;;8.36;100.00;97484.63;5113830;28;20311;-63
2022/09/26 05:22:34;;;;;;;11.27;7.70;;;;;;;8.34;100.00;97492.63;5111123;28;20230;-63
2022/09/26 05:27:46;;;;;;;11.00;7.27;;;;;;;8.31;100.00;97495.50;5114021;28;20221;-64
2022/09/26 05:30:13;;;;;;;10.77;8.20;;;;;;;8.25;100.00;97480.13;5110872;28;20284;-63
2022/09/26 05:32:40;;;;;;;10.93;8.20;;;;;;;8.25;100.00;97481.91;5113189;28;20259;-63
2022/09/26 05:35:07;;;;;;;10.70;7.73;;;;;;;8.23;100.00;97474.16;5113705;28;20223;-63
2022/09/26 05:37:34;;;;;;;12.07;8.93;;;;;;;8.30;100.00;97469.28;5113446;28;20258;-63
2022/09/26 05:42:46;;;;;;;12.47;8.60;;;;;;;8.49;100.00;97474.91;5100520;28;20253;-63
2022/09/26 05:45:14;;;;;;;12.63;9.10;;;;;;;8.59;100.00;97470.69;5100572;28;20263;-64
2022/09/26 05:47:41;;;;;;;11.70;8.93;;;;;;;8.65;100.00;97475.50;5101325;28;20230;-63
2022/09/26 05:50:09;;;;;;;12.40;9.00;;;;;;;8.72;100.00;97466.22;5102361;28;20276;-65
2022/09/26 05:52:36;;;;;;;10.23;8.23;;;;;;;8.74;100.00;97474.84;5100305;28;20251;-63
2022/09/26 05:55:06;;;;;;;11.93;9.10;;;;;;;8.81;100.00;97470.84;5104094;28;20269;-65
2022/09/26 05:57:33;;;;;;;14.73;10.30;;;;;;;8.94;100.00;97467.16;5113578;28;20244;-63
2022/09/26 06:00:01;;;;;;;15.00;9.83;;;;;;;9.08;100.00;97463.53;5111114;28;20262;-63
2022/09/26 06:02:28;;;;;;;15.47;10.00;;;;;;;9.23;100.00;97451.88;5113529;28;20627;-63
2022/09/26 06:04:55;;;;;;;15.73;10.40;;;;;;;9.40;100.00;97456.69;5113620;28;20650;-64
2022/09/26 06:07:21;;;;;;;15.87;9.97;;;;;;;9.52;100.00;97447.84;5113493;28;20330;-64
2022/09/26 06:09:49;;;;;;;16.57;10.37;;;;;;;9.63;100.00;97453.16;5102824;28;20325;-64
2022/09/26 06:12:19;;;;;;;15.67;10.37;;;;;;;9.79;100.00;97461.59;5100525;28;20224;-64
2022/09/26 06:14:45;;;;;;;16.07;10.23;;;;;;;9.89;100.00;97441.44;5095925;28;20226;-63
2022/09/26 06:17:12;;;;;;;14.77;10.23;;;;;;;9.98;100.00;97440.75;5098031;28;20268;-63
2022/09/26 06:19:39;;;;;;;14.60;10.13;;;;;;;10.06;100.00;97448.94;5101552;28;20255;-63
2022/09/26 06:22:05;;;;;;;14.30;9.93;;;;;;;10.12;100.00;97451.09;5099124;28;20596;-63
2022/09/26 06:24:32;;;;;;;12.27;9.53;;;;;;;10.13;100.00;97444.84;5099074;28;20262;-64
2022/09/26 06:26:58;;;;;;;14.97;9.93;;;;;;;10.13;100.00;97439.56;5099397;28;20267;-65
2022/09/26 06:29:26;;;;;;;13.60;8.97;;;;;;;10.09;100.00;97435.50;5101488;28;20324;-65
2022/09/26 06:31:53;;;;;;;12.30;8.90;;;;;;;10.00;100.00;97441.47;5098725;28;20260;-64
2022/09/26 06:34:20;;;;;;;14.17;8.53;;;;;;;9.89;100.00;97442.31;5098878;28;20263;-66
2022/09/26 06:36:46;;;;;;;13.07;9.73;;;;;;;9.86;100.00;97452.25;5099004;28;20570;-66
2022/09/26 06:39:13;;;;;;;10.90;8.07;;;;;;;9.84;100.00;97448.91;5102090;28;20222;-64
2022/09/26 06:41:40;;;;;;;12.03;8.53;;;;;;;9.85;100.00;97445.31;5098877;28;20229;-64
2022/09/26 06:44:07;;;;;;;12.93;8.87;;;;;;;9.86;100.00;97442.53;5097075;28;20592;-65
2022/09/26 06:46:35;;;;;;;13.03;9.63;;;;;;;9.93;100.00;97442.91;5098656;28;20233;-65
2022/09/26 06:49:01;;;;;;;13.57;9.30;;;;;;;9.97;100.00;97444.34;5098416;28;20324;-64
2022/09/26 06:51:28;;;;;;;13.40;9.73;;;;;;;10.02;100.00;97437.75;5098793;28;20256;-63
2022/09/26 06:53:54;;;;;;;13.33;9.10;;;;;;;10.14;100.00;97438.59;5096999;28;20597;-65
2022/09/26 06:56:21;;;;;;;12.53;9.03;;;;;;;10.25;100.00;97433.34;5114962;28;20297;-65
2022/09/26 06:58:48;;;;;;;11.70;9.30;;;;;;;10.38;100.00;97429.59;5112219;28;20262;-64
2022/09/26 07:01:15;;;;;;;13.00;9.20;;;;;;;10.59;100.00;97432.34;5102419;28;20602;-64
2022/09/26 07:03:43;;;;;;;13.17;8.73;;;;;;;10.76;100.00;97423.91;5102324;28;20262;-64
2022/09/26 07:06:09;;;;;;;10.43;8.20;;;;;;;10.92;100.00;97419.03;5102082;28;20328;-65
2022/09/26 07:08:36;;;;;;;10.97;8.23;;;;;;;11.07;100.00;97421.25;5105177;28;20257;-63
2022/09/26 07:11:03;;;;;;;10.37;7.83;;;;;;;11.24;100.00;97425.16;5100726;28;20322;-65
2022/09/26 07:13:30;;;;;;;9.80;7.10;;;;;;;11.38;100.00;97423.03;5102128;28;20257;-64
2022/09/26 07:15:57;;;;;;;10.93;8.20;;;;;;;11.55;100.00;97414.53;5102065;28;20223;-63
2022/09/26 07:18:24;;;;;;;9.47;7.50;;;;;;;11.72;100.00;97431.66;5104960;28;20235;-63
2022/09/26 07:20:52;;;;;;;7.83;6.83;;;;;;;11.82;100.00;97428.13;5102370;28;20589;-63
2022/09/26 07:23:19;;;;;;;11.17;7.43;;;;;;;11.97;100.00;97428.59;5104294;28;20290;-63
2022/09/26 07:25:46;;;;;;;7.33;6.17;;;;;;;12.12;100.00;97424.66;5101812;28;20257;-63
2022/09/26 07:28:14;;;;;;;6.70;6.00;;;;;;;12.24;100.00;97429.69;5104422;28;20257;-64
2022/09/26 07:30:40;;;;;;;8.23;5.97;;;;;;;12.38;100.00;97425.84;5102201;28;20327;-64
2022/09/26 07:33:07;;;;;;;5.67;5.07;;;;;;;12.40;100.00;97421.28;5101765;28;20581;-64
2022/09/26 07:35:36;;;;;;;6.47;4.97;;;;;;;12.33;100.00;97422.78;5100556;28;20269;-64
2022/09/26 07:38:05;;;;;;;5.63;5.03;;;;;;;12.34;100.00;97420.00;5103975;28;20240;-64
2022/09/26 07:40:31;;;;;;;6.60;5.30;;;;;;;12.47;100.00;97417.13;5101862;28;20227;-64
2022/09/26 07:42:59;;;;;;;4.63;4.23;;;;;;;12.61;100.00;97419.38;5101444;28;20592;-64
2022/09/26 07:50:55;;;;;;;5.13;4.10;;;;;;;13.16;100.00;97414.34;5114491;28;20533;-64
2022/09/26 07:53:24;;;;;;;4.30;3.90;;;;;;;13.30;100.00;97416.56;5107494;28;20600;-64
2022/09/26 07:56:09;;;;;;;5.23;4.00;;;;;;;13.32;100.00;97408.47;5104912;28;20362;-64
2022/09/26 07:58:37;;;;;;;4.87;3.83;;;;;;;13.43;100.00;97416.28;5101516;28;20231;-64
2022/09/26 08:01:04;;;;;;;5.70;4.70;;;;;;;13.50;100.00;97420.88;5101205;28;20262;-64
2022/09/26 08:03:30;;;;;;;4.20;3.70;;;;;;;13.61;100.00;97414.59;5101217;28;20254;-64
2022/09/26 08:06:00;;;;;;;3.87;3.40;;;;;;;13.66;100.00;97412.34;5102581;28;20292;-64
2022/09/26 08:08:29;;;;;;;5.17;3.10;;;;;;;13.65;100.00;97410.66;5101248;28;20262;-64
2022/09/26 08:10:56;;;;;;;4.33;2.90;;;;;;;13.68;100.00;97410.41;5100871;28;20243;-64
2022/09/26 08:13:23;;;;;;;3.20;2.50;;;;;;;13.71;100.00;97404.78;5103242;28;20228;-65
2022/09/26 08:15:50;;;;;;;3.50;2.80;;;;;;;13.81;100.00;97401.13;5102090;28;20259;-64
2022/09/26 08:18:16;;;;;;;3.57;2.47;;;;;;;13.96;100.00;97396.19;5100925;28;20287;-64
2022/09/26 08:20:46;;;;;;;2.60;2.40;;;;;;;14.06;100.00;97395.19;5099381;28;20326;-66
2022/09/26 08:23:13;;;;;;;3.23;2.50;;;;;;;14.10;98.25;97395.72;5100394;28;20230;-64
2022/09/26 08:25:42;;;;;;;3.40;2.23;;;;;;;14.23;94.22;97396.28;5100810;28;20255;-65
2022/09/26 08:28:11;;;;;;;3.27;2.37;;;;;;;14.37;92.00;97393.16;5099743;28;20265;-64
2022/09/26 08:30:37;;;;;;;2.67;2.40;;;;;;;14.52;90.90;97389.00;5098413;28;20324;-65
2022/09/26 08:33:04;;;;;;;3.43;2.20;;;;;;;14.66;87.66;97385.84;5102787;28;20269;-65
2022/09/26 08:35:37;;;;;;;3.57;2.40;;;;;;;14.76;87.53;97387.47;5101725;28;20257;-63
2022/09/26 08:38:04;;;;;;;4.27;2.50;;;;;;;14.90;85.00;97380.81;5101018;28;20306;-64
2022/09/26 08:40:38;;;;;;;2.50;2.30;;;;;;;14.99;84.70;97386.06;5100580;28;20585;-64
2022/09/26 08:43:19;;;;;;;4.03;2.57;;;;;;;15.04;84.29;97372.28;5100394;28;20280;-64
2022/09/26 08:48:59;;;;;;;3.50;2.40;;;;;;;14.86;85.20;97384.75;5101538;28;20217;-64
2022/09/26 08:51:31;;;;;;;3.63;2.50;;;;;;;14.63;86.55;97372.84;5100153;28;20296;-64
2022/09/26 08:54:05;;;;;;;2.27;2.07;;;;;;;14.49;86.92;97376.00;5097349;28;20593;-64
2022/09/26 08:56:37;;;;;;;4.17;2.70;;;;;;;14.33;88.15;97379.31;5111061;28;20225;-64
2022/09/26 08:59:11;;;;;;;3.87;2.30;;;;;;;14.23;87.34;97375.03;5111413;28;20223;-64
2022/09/26 09:01:43;;;;;;;4.13;2.80;;;;;;;14.15;88.60;97377.53;5113075;28;20283;-64
2022/09/26 09:04:14;;;;;;;3.47;2.30;;;;;;;14.13;86.30;97368.88;5113023;28;20258;-64
2022/09/26 09:06:43;;;;;;;2.43;2.23;;;;;;;14.03;87.29;97365.41;5109321;28;20254;-64
2022/09/26 09:09:14;;;;;;;2.70;2.50;;;;;;;14.00;87.22;97371.84;5112782;28;20226;-64
2022/09/26 09:12:00;;;;;;;3.33;2.80;;;;;;;14.08;88.11;97365.81;5112902;28;20265;-64
2022/09/26 09:14:55;;;;;;;3.53;2.40;;;;;;;14.09;88.41;97367.47;5109768;28;20223;-64
2022/09/26 09:17:33;;;;;;;3.37;2.43;;;;;;;14.14;87.50;97366.09;5099253;28;20263;-63
2022/09/26 09:20:12;;;;;;;4.20;2.23;;;;;;;14.26;88.49;97358.78;5099871;28;20223;-63
2022/09/26 09:22:53;;;;;;;3.40;2.40;;;;;;;14.29;87.22;97369.13;5099455;28;20233;-63
2022/09/26 09:25:23;;;;;;;3.13;2.33;;;;;;;14.35;85.32;97357.91;5099729;28;20258;-64
2022/09/26 09:28:09;;;;;;;3.07;2.10;;;;;;;14.46;86.59;97355.03;5099611;28;20269;-64
2022/09/26 09:30:42;;;;;;;2.90;2.03;;;;;;;14.52;85.20;97354.44;5110029;28;20328;-64
2022/09/26 09:33:13;;;;;;;4.10;2.13;;;;;;;14.65;82.96;97346.91;5110066;28;20231;-64
2022/09/26 09:35:44;;;;;;;2.43;1.53;;;;;;;14.72;78.44;97343.53;5111861;28;20570;-64
2022/09/26 09:38:16;;;;;;;3.10;1.60;;;;;;;14.78;77.34;97342.09;5108398;28;20259;-65
2022/09/26 09:40:49;;;;;;;2.80;1.57;;;;;;;14.80;77.60;97343.59;5112433;28;20281;-65
2022/09/26 09:43:25;;;;;;;2.90;1.67;;;;;;;14.92;77.68;97338.91;5097955;28;20259;-65
2022/09/26 09:45:57;;;;;;;3.33;1.70;;;;;;;14.91;77.32;97335.41;5101420;28;20357;-66
2022/09/26 09:48:26;;;;;;;1.93;1.50;;;;;;;15.04;77.93;97332.38;5098473;28;20269;-66
2022/09/26 09:51:04;;;;;;;3.87;1.60;;;;;;;15.18;76.75;97323.84;5099944;28;20239;-66
2022/09/26 09:53:48;;;;;;;3.13;1.93;;;;;;;15.20;78.28;97319.19;5105440;28;20228;-66
2022/09/26 09:56:26;;;;;;;2.53;1.83;;;;;;;15.24;79.00;97323.22;5108654;28;20580;-65
2022/09/26 09:59:11;;;;;;;3.63;1.57;;;;;;;15.34;75.88;97321.34;5100662;28;20579;-65
2022/09/26 10:01:42;;;;;;;2.10;1.43;;;;;;;15.52;73.44;97316.81;5100884;28;21051;-66
2022/09/26 10:04:27;;;;;;;1.47;1.30;;;;;;;15.78;73.95;97314.97;5100004;28;20259;-65
2022/09/26 10:06:54;;;;;;;1.80;1.50;;;;;;;16.08;71.33;97313.47;5101813;28;20562;-65
2022/09/26 10:09:25;;;;;;;1.27;1.17;;;;;;;16.52;67.96;97306.19;5102180;28;20595;-66
2022/09/26 10:11:52;;;;;;;1.40;1.30;;;;;;;16.88;66.75;97303.09;5099884;28;20241;-65
2022/09/26 10:14:27;;;;;;;2.80;1.50;;;;;;;17.01;64.33;97298.09;5099776;28;20313;-66
2022/09/26 10:17:17;;;;;;;1.87;1.30;;;;;;;17.13;64.14;97288.75;5101439;28;20259;-66
2022/09/26 10:19:44;;;;;;;1.63;1.40;;;;;;;17.04;62.99;97296.91;5099822;28;20532;-66
2022/09/26 10:22:22;;;;;;;3.40;1.60;;;;;;;16.84;63.38;97285.75;5099904;28;20256;-66
2022/09/26 10:24:50;;;;;;;2.33;1.53;;;;;;;16.78;62.67;97281.06;5107535;28;20583;-66
2022/09/26 10:27:21;;;;;;;2.07;1.30;;;;;;;16.84;62.12;97277.75;5110922;28;20263;-66
2022/09/26 10:29:56;;;;;;;3.17;1.60;;;;;;;16.97;62.33;97275.41;5114116;28;20312;-66
2022/09/26 10:32:24;;;;;;;2.80;1.57;;;;;;;17.15;62.43;97272.56;5113988;28;20259;-66
2022/09/26 10:35:04;;;;;;;2.13;1.37;;;;;;;17.21;61.98;97277.25;5112350;28;20265;-66
2022/09/26 10:37:31;;;;;;;1.30;1.20;;;;;;;17.27;61.35;97271.22;5115057;28;20264;-66
2022/09/26 10:42:45;;;;;;;1.27;1.17;;;;;;;17.07;60.72;97268.06;5110346;28;20298;-66
2022/09/26 10:45:16;;;;;;;2.43;1.50;;;;;;;16.96;59.54;97263.03;5114735;28;20239;-66
2022/09/26 10:47:49;;;;;;;1.50;1.30;;;;;;;16.74;58.82;97262.88;5114785;28;20252;-66
2022/09/26 10:50:20;;;;;;;1.20;1.10;;;;;;;16.78;60.29;97258.88;5111916;28;20262;-66
2022/09/26 10:52:51;;;;;;;2.17;1.27;;;;;;;16.75;59.06;97264.53;5112570;28;20233;-66
2022/09/26 10:55:23;;;;;;;1.10;1.00;;;;;;;16.59;60.43;97252.00;5107135;28;20260;-66
2022/09/26 10:57:53;;;;;;;2.07;1.20;;;;;;;16.46;59.71;97256.97;5115263;28;20264;-66
2022/09/26 11:00:22;;;;;;;1.73;1.10;;;;;;;16.33;59.40;97259.25;5111085;28;20257;-66
2022/09/26 11:02:51;;;;;;;1.43;1.10;;;;;;;16.37;60.49;97249.94;5114683;28;20228;-66
2022/09/26 11:08:07;;;;;;;1.87;1.40;;;;;;;16.84;61.39;97229.72;5108982;28;20312;-66
2022/09/26 11:10:37;;;;;;;2.07;1.30;;;;;;;17.11;59.80;97233.84;5114464;28;20252;-66
2022/09/26 11:13:16;;;;;;;2.53;1.30;;;;;;;17.18;56.37;97225.00;5114440;28;20225;-66
2022/09/26 11:15:52;;;;;;;2.00;1.30;;;;;;;17.20;57.18;97232.84;5112399;28;20263;-66
2022/09/26 11:18:27;;;;;;;1.63;1.30;;;;;;;17.13;58.07;97231.88;5113088;28;20265;-66
2022/09/26 11:20:57;;;;;;;1.33;1.10;;;;;;;16.99;58.67;97222.69;5114212;28;20259;-66
2022/09/26 11:23:33;;;;;;;1.73;1.03;;;;;;;16.88;59.30;97220.34;5114152;28;20287;-66
2022/09/26 11:26:10;;;;;;;1.03;0.90;;;;;;;16.85;63.34;97215.34;5111483;28;20268;-67
2022/09/26 11:28:43;;;;;;;1.60;1.20;;;;;;;16.77;62.07;97215.34;5114156;28;20288;-66
2022/09/26 11:31:19;;;;;;;1.87;1.10;;;;;;;16.73;60.13;97205.16;5114107;28;20253;-66
2022/09/26 11:33:47;;;;;;;1.40;1.17;;;;;;;16.72;62.10;97206.16;5110286;28;20253;-66
2022/09/26 11:36:31;;;;;;;1.93;1.10;;;;;;;16.82;62.33;97191.66;5112219;28;20264;-66
2022/09/26 11:39:06;;;;;;;0.90;0.87;;;;;;;16.83;61.67;97187.16;5113569;28;20232;-66
2022/09/26 11:41:44;;;;;;;2.33;1.30;;;;;;;16.95;61.64;97191.16;5108386;28;20265;-65
2022/09/26 11:44:43;;;;;;;1.37;1.27;;;;;;;17.09;61.17;97180.63;5099420;28;20261;-66
2022/09/26 11:47:45;;;;;;;1.87;1.10;;;;;;;16.84;59.00;97178.16;5102630;28;20265;-67
2022/09/26 11:50:39;;;;;;;2.17;1.43;;;;;;;16.84;60.47;97168.31;5102997;28;20232;-66
2022/09/26 11:53:25;;;;;;;2.80;1.50;;;;;;;16.87;59.80;97167.97;5112008;28;20531;-65
2022/09/26 11:56:14;;;;;;;1.37;1.13;;;;;;;16.90;60.19;97167.66;5111573;28;20229;-66
2022/09/26 11:58:47;;;;;;;1.17;1.07;;;;;;;16.93;58.92;97161.97;5113256;28;20280;-66
2022/09/26 12:01:26;;;;;;;1.93;1.10;;;;;;;16.72;58.80;97169.66;5112178;28;20260;-65
2022/09/26 12:04:18;;;;;;;3.33;1.77;;;;;;;15.83;76.35;97195.44;5112552;28;20230;-67
2022/09/26 12:06:55;;;;;;;2.63;1.50;;;;;;;15.14;83.31;97195.56;5113989;28;20284;-66
2022/09/26 12:09:39;;;;;;;1.13;1.03;;;;;;;14.56;83.03;97204.25;5111934;28;20228;-66